Impacts TAF Board
For situational awareness. Not to be used for flight planning purposes.
IDs:

KSLC - Salt Lake City Intl, UT, US

Issued at 1736 UTC 12 Dec 2018
Updated at 1820 UTC 12 Dec 2018
Potential Impact None Slight Moderate High
Time1805Z 12/19Z 12/20Z 12/21Z 12/22Z 12/23Z 13/00Z 13/01Z 13/02Z 13/03Z 13/04Z 13/05Z 13/06Z 13/07Z>>
Type OBS PRVL PRVL PRVL PRVL PRVL PRVL PRVL PRVL PRVL PRVL PRVL PRVL PRVL
VIS 2.5 4 >6 >6 >6 >6 >6 >6 >6 >6 >6 >6 >6 >6
CIG 36 25 50 50 50 50 50 -- -- -- -- -- -- --
Cover OVC OVC BKN BKN BKN BKN BKN SCT SCT SCT SCT SCT SCT SCT
FltCat IFR MVFR VFR VFR VFR VFR VFR VFR VFR VFR VFR VFR VFR VFR
WX -SN BR -SHSN BR VCSH VCSH VCSH VCSH VCSH -- -- -- -- -- -- --
WDir VRB 320 320 320 320 320 320 350 350 350 350 160 160 160
WSpd 0 11 14 14 14 14 14 7 7 7 7 5 5 5
WGst -- -- 21 21 21 21 21 -- -- -- -- -- -- --
Raw TAF
KSLC 121736Z 1218/1324 32011KT 4SM -SHSN BR SCT015 OVC025
  FM121930 32014G21KT P6SM VCSH SCT030 BKN050
  FM130100 35007KT P6SM SCT060
  FM130500 16005KT P6SM FEW100 SCT180


Raw METAR
KSLC 121805Z 00000KT 2 1/2SM -SN BR FEW015 SCT028 OVC036 M01/M02 A3011 RMK AO2 P0000 T10111022
KSLC 121801Z 00000KT 1 1/2SM -SN BR FEW015 SCT028 OVC036 M01/M02 A3011 RMK AO2 TWR VIS 2 1/2 P0000 T10111022
KSLC 121754Z 00000KT 2 1/2SM -SN BR FEW015 FEW026 OVC034 M01/M02 A3011 RMK AO2 SFC VIS 3 SNE38B47 SLP211 4/001 P0001 60008 T10111022 11006 21017 51039
KSLC 121739Z 00000KT 2 1/2SM BR FEW021 BKN036 OVC070 M01/M02 A3011 RMK AO2 SFC VIS 3 SNE38 P0000 T10111022
KSLC 121723Z 36004KT 2SM -SN BR FEW019 BKN027 OVC035 M01/M02 A3011 RMK AO2 SFC VIS 2 1/2 P0000 T10111022
KSLC 121710Z 03003KT 1 3/4SM R16L/4500VP6000FT -SN BR BKN023 OVC030 M02/M02 A3010 RMK AO2 TWR VIS 2 P0000 T10171022
KSLC 121654Z 00000KT 2SM -SN BR OVC023 M02/M02 A3010 RMK AO2 SFC VIS 2 1/2 SLP208 SNINCR 1/1 P0006 T10171022
KSLC 121633Z 01003KT 2SM -SN BR SCT008 OVC022 M02/M02 A3009 RMK AO2 SFC VIS 2 1/2 P0006 T10171022
KSLC 121613Z 36004KT 3/4SM R16L/2200V3000FT -SN BR VV006 M02/M02 A3008 RMK AO2 P0005 T10171022
KSLC 121554Z 33010KT 1/2SM R16L/2000V4000FT SN FZFG VV013 M02/M02 A3007 RMK AO2 TWR VIS 3/4 SLP196 P0001 T10171022
KSLC 121539Z 36010KT 3/4SM R16L/2400VP6000FT -SN BR FEW010 OVC016 M02/M02 A3004 RMK AO2 SFC VIS 1 1/2 P0001 T10171022

METAR Board
Radar Display
Forecast Discussion
For situational awareness. Not to be used for flight planning purposes.